Time;durP1;ratioP1;P1;durP2;ratioP2;P2;SDS_P1;SDS_P2;PMS_P1;PMS_P2;Temp;Humidity;BMP_temperature;BMP_pressure;BME280_temperature;BME280_humidity;BME280_pressure;Samples;Min_cycle;Max_cycle;Signal;HPM_P1;HPM_P2
2023/10/12 00:02:26;;;;;;;6.28;2.22;;;12.50;99.90;;;;;;5055413;28;20542;-88
2023/10/12 00:05:00;;;;;;;9.40;2.42;;;12.20;99.90;;;;;;5054711;28;20211;-87
2023/10/12 00:07:42;;;;;;;8.40;1.98;;;12.00;99.90;;;;;;5051439;28;20218;-87
2023/10/12 00:12:45;;;;;;;7.18;2.80;;;11.60;99.90;;;;;;5050376;28;20666;-87
2023/10/12 00:15:25;;;;;;;7.25;2.20;;;11.70;99.90;;;;;;5055999;28;20192;-86
2023/10/12 00:18:04;;;;;;;10.45;2.30;;;11.60;99.90;;;;;;5052207;28;20189;-86
2023/10/12 00:20:35;;;;;;;8.48;2.67;;;11.60;99.90;;;;;;5044026;28;20260;-87
2023/10/12 00:23:10;;;;;;;8.57;2.28;;;11.60;99.90;;;;;;5059681;28;20192;-86
2023/10/12 00:25:47;;;;;;;9.57;2.25;;;11.70;99.90;;;;;;5055817;28;20220;-86
2023/10/12 00:28:21;;;;;;;11.07;2.67;;;11.70;99.90;;;;;;5057070;28;20270;-86
2023/10/12 00:30:54;;;;;;;10.65;2.45;;;11.50;99.90;;;;;;5056120;28;20188;-86
2023/10/12 00:33:23;;;;;;;6.68;1.88;;;11.50;99.90;;;;;;5052829;28;20669;-86
2023/10/12 00:36:03;;;;;;;9.98;1.98;;;11.50;99.90;;;;;;5056795;28;20188;-85
2023/10/12 00:38:31;;;;;;;7.28;2.25;;;11.40;99.90;;;;;;5034535;28;20270;-87
2023/10/12 00:41:03;;;;;;;11.85;2.22;;;11.30;99.90;;;;;;5048424;28;20224;-87
2023/10/12 00:43:38;;;;;;;15.40;2.50;;;11.30;99.90;;;;;;5058928;28;20181;-86
2023/10/12 00:49:13;;;;;;;7.57;2.30;;;11.00;99.90;;;;;;5057337;28;20201;-86
2023/10/12 00:51:53;;;;;;;9.85;2.30;;;10.90;99.90;;;;;;5061779;28;20282;-86
2023/10/12 00:54:27;;;;;;;9.38;2.47;;;10.90;99.90;;;;;;5054212;28;20193;-86
2023/10/12 00:56:57;;;;;;;5.13;1.98;;;10.80;99.90;;;;;;5051248;28;20191;-85
2023/10/12 00:59:27;;;;;;;8.68;2.53;;;10.80;99.90;;;;;;5035905;28;21059;-86
2023/10/12 01:01:55;;;;;;;10.70;2.47;;;10.80;99.90;;;;;;5055423;28;20195;-86
2023/10/12 01:04:23;;;;;;;7.28;2.15;;;10.70;99.90;;;;;;5058895;28;20196;-85
2023/10/12 01:06:50;;;;;;;12.30;2.47;;;10.70;99.90;;;;;;5055906;28;20193;-86
2023/10/12 01:09:20;;;;;;;12.40;2.08;;;10.70;99.90;;;;;;5061673;28;20675;-86
2023/10/12 01:11:57;;;;;;;8.00;1.95;;;10.70;99.90;;;;;;5055608;28;20552;-86
2023/10/12 01:14:30;;;;;;;13.13;2.63;;;10.60;99.90;;;;;;5051569;28;20196;-86
2023/10/12 01:16:58;;;;;;;11.95;2.35;;;10.60;99.90;;;;;;5053225;28;20191;-87
2023/10/12 01:19:31;;;;;;;9.40;1.83;;;10.50;99.90;;;;;;5056877;28;20287;-86
2023/10/12 01:22:12;;;;;;;12.57;2.03;;;10.50;99.90;;;;;;5061521;28;20197;-86
2023/10/12 01:27:21;;;;;;;14.48;1.67;;;10.50;99.90;;;;;;5060488;28;20283;-86
2023/10/12 01:29:50;;;;;;;9.82;2.33;;;10.40;99.90;;;;;;5038404;28;20324;-85
2023/10/12 01:32:24;;;;;;;6.60;1.80;;;10.40;99.90;;;;;;5055893;28;20220;-85
2023/10/12 01:34:56;;;;;;;8.93;2.20;;;10.30;99.90;;;;;;5061053;28;20191;-85
2023/10/12 01:37:28;;;;;;;5.90;1.75;;;10.30;99.90;;;;;;5034861;28;20736;-84
2023/10/12 01:45:31;;;;;;;10.98;1.88;;;10.20;99.90;;;;;;5057549;28;20191;-86
2023/10/12 01:48:07;;;;;;;15.15;2.17;;;10.20;99.90;;;;;;5052558;28;20242;-86
2023/10/12 01:50:38;;;;;;;9.32;1.92;;;10.20;99.90;;;;;;5060433;28;20204;-86
2023/10/12 01:55:51;;;;;;;12.98;2.05;;;10.20;99.90;;;;;;5056020;28;20188;-85
2023/10/12 01:58:20;;;;;;;14.95;2.40;;;10.10;99.90;;;;;;5052650;28;21056;-85
2023/10/12 02:00:51;;;;;;;7.95;2.10;;;10.10;99.90;;;;;;5037708;28;20292;-87
2023/10/12 02:03:31;;;;;;;12.18;2.05;;;10.10;99.90;;;;;;5064088;28;20280;-86
2023/10/12 02:06:01;;;;;;;8.95;1.95;;;10.10;99.90;;;;;;5053942;28;20295;-86
2023/10/12 02:08:46;;;;;;;13.27;2.95;;;10.10;99.90;;;;;;5061124;28;20195;-86
2023/10/12 02:13:51;;;;;;;9.50;2.05;;;10.10;99.90;;;;;;5055927;28;20271;-87
2023/10/12 02:16:24;;;;;;;11.60;2.53;;;10.10;99.90;;;;;;5053234;28;20257;-86
2023/10/12 02:18:55;;;;;;;13.15;2.60;;;10.10;99.90;;;;;;5056754;28;20972;-86
2023/10/12 02:21:25;;;;;;;11.35;2.10;;;10.10;99.90;;;;;;5041036;28;20243;-87
2023/10/12 02:32:36;;;;;;;13.15;2.53;;;10.10;99.90;;;;;;5054653;28;20658;-86
2023/10/12 02:34:31;;;;;;;5.40;2.03;;;10.10;99.90;;;;;;5057286;28;20254;-85
2023/10/12 02:37:00;;;;;;;10.77;2.05;;;10.10;99.90;;;;;;5054492;28;20180;-86
2023/10/12 02:39:37;;;;;;;13.60;2.30;;;10.10;99.90;;;;;;5054478;28;20235;-87
2023/10/12 02:47:40;;;;;;;8.35;2.15;;;10.20;99.90;;;;;;5046624;28;20216;-86
2023/10/12 02:52:43;;;;;;;10.52;2.47;;;10.20;99.90;;;;;;5051131;28;20192;-86
2023/10/12 02:58:19;;;;;;;16.17;2.40;;;10.20;99.90;;;;;;5053882;28;20185;-86
2023/10/12 03:00:54;;;;;;;16.02;2.35;;;10.20;99.90;;;;;;5053255;28;20221;-85
2023/10/12 03:03:33;;;;;;;10.10;2.25;;;10.20;99.90;;;;;;5040741;28;20737;-86
2023/10/12 03:06:07;;;;;;;14.00;2.30;;;10.20;99.90;;;;;;5053444;28;20239;-86
2023/10/12 03:11:25;;;;;;;15.15;2.30;;;10.20;99.90;;;;;;5063448;28;20251;-87
2023/10/12 03:14:00;;;;;;;7.50;2.05;;;10.20;99.90;;;;;;5050029;28;20242;-86
2023/10/12 03:16:34;;;;;;;10.60;2.50;;;10.10;99.90;;;;;;5056375;28;20188;-86
2023/10/12 03:19:17;;;;;;;14.80;3.20;;;10.10;99.90;;;;;;5050581;28;20200;-86
2023/10/12 03:21:49;;;;;;;12.15;2.60;;;10.10;99.90;;;;;;5058994;28;20253;-86
2023/10/12 03:24:21;;;;;;;13.35;1.95;;;10.10;99.90;;;;;;5065724;28;20196;-86
2023/10/12 03:27:10;;;;;;;10.63;2.15;;;10.10;99.90;;;;;;5063065;28;20575;-87
2023/10/12 03:29:43;;;;;;;7.85;1.80;;;10.10;99.90;;;;;;5061871;28;20201;-85
2023/10/12 03:32:22;;;;;;;8.57;1.90;;;10.10;99.90;;;;;;5052698;28;20201;-84
2023/10/12 03:34:53;;;;;;;12.45;2.20;;;10.10;99.90;;;;;;5063948;28;20574;-86
2023/10/12 03:37:44;;;;;;;9.40;2.25;;;10.10;99.90;;;;;;5062486;28;20434;-86
2023/10/12 03:41:44;;;;;;;8.75;1.70;;;10.10;99.90;;;;;;5055800;28;20243;-86
2023/10/12 03:43:10;;;;;;;10.23;2.03;;;10.10;99.90;;;;;;5050309;28;20196;-85
2023/10/12 03:53:57;;;;;;;9.48;2.67;;;10.10;99.90;;;;;;5057990;28;20193;-85
2023/10/12 03:56:28;;;;;;;13.38;2.10;;;10.10;99.90;;;;;;5051127;28;20224;-86
2023/10/12 03:58:59;;;;;;;14.05;3.05;;;10.10;99.90;;;;;;5065909;28;20200;-86
2023/10/12 04:01:31;;;;;;;12.32;2.72;;;10.20;99.90;;;;;;5062200;28;20203;-84
2023/10/12 04:04:07;;;;;;;10.52;2.15;;;10.20;99.90;;;;;;5065740;28;20196;-86
2023/10/12 04:09:31;;;;;;;10.85;2.65;;;10.10;99.90;;;;;;5054705;28;20266;-86
2023/10/12 04:14:52;;;;;;;8.02;2.33;;;10.10;99.90;;;;;;5060947;28;20228;-86
2023/10/12 04:23:44;;;;;;;11.95;2.42;;;10.10;99.90;;;;;;5058381;28;20984;-86
2023/10/12 04:33:14;;;;;;;11.60;2.35;;;10.00;99.90;;;;;;5055089;28;20192;-85
2023/10/12 04:35:52;;;;;;;10.68;2.15;;;10.00;99.90;;;;;;5039240;28;20216;-85
2023/10/12 04:43:40;;;;;;;11.15;2.58;;;10.00;99.90;;;;;;5060918;28;20271;-86
2023/10/12 04:48:41;;;;;;;9.07;2.28;;;10.00;99.90;;;;;;5057455;28;20702;-85
2023/10/12 04:51:18;;;;;;;12.07;2.10;;;10.00;99.90;;;;;;5050189;28;20610;-85
2023/10/12 04:54:05;;;;;;;11.35;2.30;;;10.00;99.90;;;;;;5057783;28;20212;-86
2023/10/12 04:56:36;;;;;;;10.23;2.35;;;9.90;99.90;;;;;;5064953;28;20187;-85
2023/10/12 04:59:17;;;;;;;11.45;2.33;;;9.90;99.90;;;;;;5046518;28;20670;-86
2023/10/12 05:07:27;;;;;;;7.40;1.80;;;9.90;99.90;;;;;;5049337;28;20595;-87
2023/10/12 05:09:55;;;;;;;9.00;2.15;;;9.90;99.90;;;;;;5057235;28;20258;-87
2023/10/12 05:12:23;;;;;;;11.43;2.53;;;9.90;99.90;;;;;;5057028;28;20196;-85
2023/10/12 05:15:01;;;;;;;8.65;2.13;;;9.90;99.90;;;;;;5056761;28;20181;-86
2023/10/12 05:17:28;;;;;;;8.48;2.42;;;9.90;99.90;;;;;;5055353;28;20253;-85
2023/10/12 05:19:56;;;;;;;9.70;2.03;;;9.80;99.90;;;;;;5057479;28;20184;-86
2023/10/12 05:22:23;;;;;;;7.95;2.20;;;9.80;99.90;;;;;;5061332;28;20199;-86
2023/10/12 05:24:52;;;;;;;8.27;2.38;;;9.80;99.90;;;;;;5064159;28;20188;-86
2023/10/12 05:27:23;;;;;;;11.52;1.77;;;9.80;99.90;;;;;;5032036;28;20189;-86
2023/10/12 05:29:59;;;;;;;11.90;1.92;;;9.80;99.90;;;;;;5064263;28;20736;-88
2023/10/12 05:32:43;;;;;;;9.52;2.05;;;9.80;99.90;;;;;;5057090;28;20184;-87
2023/10/12 05:35:16;;;;;;;6.55;1.60;;;9.80;99.90;;;;;;5065248;28;20270;-86
2023/10/12 05:37:56;;;;;;;13.52;2.05;;;9.80;99.90;;;;;;5044578;28;20284;-84
2023/10/12 05:40:34;;;;;;;16.55;2.63;;;9.80;99.90;;;;;;5044910;28;20197;-85
2023/10/12 05:43:16;;;;;;;15.15;2.97;;;9.80;99.90;;;;;;5052538;28;20254;-87
2023/10/12 05:45:44;;;;;;;11.77;2.80;;;9.80;99.90;;;;;;5058191;28;20694;-86
2023/10/12 05:48:12;;;;;;;16.05;2.58;;;9.80;99.90;;;;;;5055594;28;20287;-85
2023/10/12 05:50:42;;;;;;;13.95;2.15;;;9.80;99.90;;;;;;5031989;28;20891;-85
2023/10/12 05:53:09;;;;;;;9.52;2.08;;;9.80;99.90;;;;;;5057285;28;20189;-86
2023/10/12 05:55:37;;;;;;;14.32;2.22;;;9.80;99.90;;;;;;5050635;28;20185;-87
2023/10/12 05:58:11;;;;;;;13.80;2.33;;;9.80;99.90;;;;;;5057416;28;20208;-87
2023/10/12 06:00:44;;;;;;;20.95;2.70;;;9.80;99.90;;;;;;5056477;28;20220;-85
2023/10/12 06:03:15;;;;;;;13.02;1.95;;;9.80;99.90;;;;;;5050178;28;20220;-86
2023/10/12 06:05:44;;;;;;;9.30;2.15;;;9.80;99.90;;;;;;5054167;28;20192;-85
2023/10/12 06:08:18;;;;;;;11.65;1.95;;;9.80;99.90;;;;;;5056418;28;20187;-85
2023/10/12 06:10:46;;;;;;;15.88;2.00;;;9.80;99.90;;;;;;5056630;28;20211;-86
2023/10/12 06:13:14;;;;;;;14.13;2.38;;;9.80;99.90;;;;;;5056467;28;20296;-86
2023/10/12 06:15:42;;;;;;;11.38;1.95;;;9.80;99.90;;;;;;5055197;28;20184;-85
2023/10/12 06:18:21;;;;;;;14.20;2.03;;;9.90;99.90;;;;;;5061688;28;20278;-88
2023/10/12 06:20:58;;;;;;;15.52;2.45;;;9.90;99.90;;;;;;5057229;28;20298;-85
2023/10/12 06:23:25;;;;;;;10.40;2.33;;;9.90;99.90;;;;;;5053814;28;20203;-87
2023/10/12 06:25:55;;;;;;;14.02;2.63;;;10.00;99.90;;;;;;5059298;28;20728;-86
2023/10/12 06:28:34;;;;;;;9.65;1.98;;;9.90;99.90;;;;;;5054913;28;20185;-87
2023/10/12 06:31:04;;;;;;;13.23;2.25;;;9.90;99.90;;;;;;5057301;28;20768;-86
2023/10/12 06:33:33;;;;;;;12.68;1.83;;;9.90;99.90;;;;;;5056326;28;20177;-86
2023/10/12 06:36:01;;;;;;;14.35;2.33;;;9.90;99.90;;;;;;5052313;28;20198;-86
2023/10/12 06:38:47;;;;;;;11.60;1.83;;;9.90;99.90;;;;;;5059544;28;20196;-86
2023/10/12 06:46:48;;;;;;;13.90;2.55;;;9.80;99.90;;;;;;5058741;28;20750;-86
2023/10/12 06:49:35;;;;;;;10.93;2.33;;;9.80;99.90;;;;;;5062394;28;20251;-86
2023/10/12 06:52:03;;;;;;;15.82;2.30;;;9.80;99.90;;;;;;5061743;28;20227;-86
2023/10/12 06:54:32;;;;;;;10.23;1.55;;;9.70;99.90;;;;;;5060761;28;20524;-86
2023/10/12 07:02:29;;;;;;;14.07;2.15;;;9.80;99.90;;;;;;5059785;28;20189;-86
2023/10/12 07:04:58;;;;;;;14.23;2.20;;;9.80;99.90;;;;;;5065448;28;20249;-87
2023/10/12 07:07:30;;;;;;;12.82;2.22;;;9.80;99.90;;;;;;5042187;28;20271;-87
2023/10/12 07:12:44;;;;;;;11.32;2.38;;;9.90;99.90;;;;;;5059657;28;20698;-87
2023/10/12 07:15:14;;;;;;;12.57;2.10;;;9.80;99.90;;;;;;5062788;28;20238;-87
2023/10/12 07:17:49;;;;;;;14.73;2.13;;;9.80;99.90;;;;;;5064866;28;20686;-86
2023/10/12 07:25:43;;;;;;;11.68;2.35;;;9.80;99.90;;;;;;5069850;28;20193;-87
2023/10/12 07:28:33;;;;;;;13.57;2.63;;;9.80;99.90;;;;;;5068466;28;20181;-88
2023/10/12 07:39:20;;;;;;;13.65;2.17;;;9.70;99.90;;;;;;5055330;28;20199;-86
2023/10/12 07:41:56;;;;;;;15.60;2.38;;;9.70;99.90;;;;;;5055886;28;20274;-88
2023/10/12 07:44:27;;;;;;;14.75;2.60;;;9.70;99.90;;;;;;5058800;28;20210;-92
2023/10/12 07:46:56;;;;;;;17.83;2.90;;;9.70;99.90;;;;;;5072606;28;20254;-90
2023/10/12 07:57:20;;;;;;;18.48;3.63;;;9.70;99.90;;;;;;5072256;28;20189;-89
2023/10/12 08:13:16;;;;;;;12.57;1.95;;;9.60;99.90;;;;;;5053167;28;20193;-88
2023/10/12 08:15:55;;;;;;;13.57;2.22;;;9.60;99.90;;;;;;5066689;28;20189;-89
2023/10/12 08:21:31;;;;;;;19.48;2.40;;;9.60;99.90;;;;;;5070001;28;20191;-88
2023/10/12 08:24:15;;;;;;;13.43;2.05;;;9.60;99.90;;;;;;5061509;28;20213;-90
2023/10/12 08:32:03;;;;;;;14.65;2.28;;;9.70;99.90;;;;;;5070130;28;20197;-89
2023/10/12 08:44:59;;;;;;;15.07;2.15;;;10.10;99.90;;;;;;5070034;28;20211;-90
2023/10/12 08:52:39;;;;;;;11.05;3.13;;;10.20;99.90;;;;;;5069746;28;20203;-89
2023/10/12 08:55:12;;;;;;;13.75;2.53;;;10.20;99.90;;;;;;5071379;28;20525;-89
2023/10/12 08:58:01;;;;;;;16.35;2.67;;;10.10;99.90;;;;;;5070001;28;20188;-90
2023/10/12 09:05:51;;;;;;;10.90;2.55;;;10.10;99.90;;;;;;5068612;28;20238;-89
2023/10/12 09:11:13;;;;;;;16.60;2.28;;;10.10;99.90;;;;;;5069417;28;20208;-89
2023/10/12 09:13:45;;;;;;;15.20;2.33;;;10.10;99.90;;;;;;5062119;28;20193;-89
2023/10/12 09:16:15;;;;;;;12.68;1.70;;;10.10;99.90;;;;;;5034478;28;20200;-90
2023/10/12 09:18:44;;;;;;;16.70;2.50;;;10.10;99.90;;;;;;5053274;28;20192;-89
2023/10/12 09:23:50;;;;;;;11.20;1.63;;;10.10;99.90;;;;;;5054528;28;20189;-89
2023/10/12 09:26:30;;;;;;;17.80;1.92;;;10.10;99.90;;;;;;5053135;28;20200;-89
2023/10/12 09:36:44;;;;;;;10.93;2.22;;;10.10;99.90;;;;;;5069404;28;20569;-88
2023/10/12 09:39:14;;;;;;;12.82;1.80;;;10.10;99.90;;;;;;5069407;28;20191;-89
2023/10/12 09:41:54;;;;;;;14.90;1.95;;;10.10;99.90;;;;;;5069485;28;20238;-89
2023/10/12 09:44:27;;;;;;;14.50;2.20;;;10.10;99.90;;;;;;5069172;28;20192;-89
2023/10/12 09:46:59;;;;;;;8.82;1.55;;;10.10;99.90;;;;;;5069503;28;20242;-89
2023/10/12 09:49:29;;;;;;;12.90;1.98;;;10.10;99.90;;;;;;5034790;28;20224;-91
2023/10/12 09:52:03;;;;;;;12.45;2.10;;;10.20;99.90;;;;;;5068888;28;20888;-90
2023/10/12 09:54:45;;;;;;;9.05;1.80;;;10.10;99.90;;;;;;5069542;28;20173;-90
2023/10/12 09:57:19;;;;;;;10.85;1.98;;;10.20;99.90;;;;;;5034247;28;20193;-92
2023/10/12 09:59:51;;;;;;;11.15;1.80;;;10.10;99.90;;;;;;5065463;28;20215;-90
2023/10/12 10:02:30;;;;;;;15.68;2.08;;;10.20;99.90;;;;;;5052360;28;20211;-90
2023/10/12 10:05:24;;;;;;;10.65;2.30;;;10.20;99.90;;;;;;5068979;28;20195;-90
2023/10/12 10:07:58;;;;;;;7.75;2.00;;;10.20;99.90;;;;;;5048009;28;20592;-89
2023/10/12 10:10:34;;;;;;;10.55;1.83;;;10.20;99.90;;;;;;5052620;28;20181;-90
2023/10/12 10:13:12;;;;;;;14.50;1.83;;;10.30;99.90;;;;;;5055303;28;20240;-90
2023/10/12 10:15:56;;;;;;;10.50;1.75;;;10.20;99.90;;;;;;5052366;28;20283;-90
2023/10/12 10:18:28;;;;;;;14.52;2.28;;;10.30;99.90;;;;;;5073295;28;20681;-91
2023/10/12 10:21:05;;;;;;;10.43;2.08;;;10.30;99.90;;;;;;5073494;28;20773;-90
2023/10/12 10:23:39;;;;;;;10.25;1.75;;;10.30;99.90;;;;;;5056731;28;20176;-88
2023/10/12 10:26:30;;;;;;;9.05;1.55;;;10.30;99.90;;;;;;5069329;28;20185;-88
2023/10/12 10:29:04;;;;;;;9.85;1.73;;;10.30;99.90;;;;;;5046161;28;20180;-90
2023/10/12 10:31:34;;;;;;;13.63;1.80;;;10.30;99.90;;;;;;5072368;28;20712;-89
2023/10/12 10:34:06;;;;;;;12.70;1.73;;;10.40;99.90;;;;;;5056266;28;20185;-90
2023/10/12 10:36:36;;;;;;;8.05;1.65;;;10.40;99.90;;;;;;5072521;28;20229;-88
2023/10/12 10:41:55;;;;;;;9.35;1.60;;;10.40;99.90;;;;;;5053002;28;20228;-89
2023/10/12 10:44:26;;;;;;;13.52;1.70;;;10.40;99.90;;;;;;5036761;28;20189;-91
2023/10/12 10:47:06;;;;;;;8.57;1.40;;;10.40;99.90;;;;;;5072467;28;20211;-92
2023/10/12 10:49:34;;;;;;;12.23;2.20;;;10.40;99.90;;;;;;5073971;28;20658;-90
2023/10/12 10:54:39;;;;;;;12.48;1.95;;;10.40;99.90;;;;;;5054080;28;20190;-90
2023/10/12 10:57:17;;;;;;;9.23;1.35;;;10.40;99.90;;;;;;5072797;28;20708;-92
2023/10/12 10:59:45;;;;;;;9.88;1.80;;;10.40;99.90;;;;;;5056729;28;20188;-92
2023/10/12 11:02:21;;;;;;;16.65;1.83;;;10.40;99.90;;;;;;5057472;28;20188;-92
2023/10/12 11:04:55;;;;;;;14.65;1.98;;;10.40;99.90;;;;;;5073807;28;20180;-92
2023/10/12 11:07:24;;;;;;;10.10;1.80;;;10.50;99.90;;;;;;5056895;28;20203;-92
2023/10/12 11:12:31;;;;;;;8.13;2.00;;;10.60;99.90;;;;;;5074660;28;20246;-92
2023/10/12 11:15:12;;;;;;;9.10;1.70;;;10.60;99.90;;;;;;5072885;28;20181;-92
2023/10/12 11:17:55;;;;;;;7.53;1.73;;;10.50;99.90;;;;;;5063281;28;20212;-92
2023/10/12 11:20:26;;;;;;;8.10;1.40;;;10.50;99.90;;;;;;5052801;28;20189;-91
2023/10/12 11:22:54;;;;;;;13.13;2.15;;;10.40;99.90;;;;;;5053325;28;20195;-93
2023/10/12 11:25:22;;;;;;;10.45;1.70;;;10.40;99.90;;;;;;5054990;28;20197;-91
2023/10/12 11:27:51;;;;;;;9.85;1.52;;;10.40;99.90;;;;;;5064162;28;20357;-91
2023/10/12 11:30:36;;;;;;;6.50;1.23;;;10.40;99.90;;;;;;5059664;28;20529;-92
2023/10/12 11:33:09;;;;;;;8.27;1.42;;;10.40;99.90;;;;;;5052354;28;20208;-91
2023/10/12 11:35:40;;;;;;;8.18;1.52;;;10.40;99.90;;;;;;5070314;28;20271;-91
2023/10/12 11:38:17;;;;;;;7.95;1.40;;;10.40;99.90;;;;;;5068482;28;20243;-92
2023/10/12 11:40:52;;;;;;;15.18;1.40;;;10.50;99.90;;;;;;5051977;28;20714;-91
2023/10/12 11:43:21;;;;;;;8.77;1.38;;;10.50;99.90;;;;;;5071608;28;20290;-91
2023/10/12 11:46:03;;;;;;;6.32;1.83;;;10.50;99.90;;;;;;5049155;28;20280;-92
2023/10/12 11:48:31;;;;;;;9.82;1.55;;;10.50;99.90;;;;;;5053317;28;20211;-90
2023/10/12 11:51:00;;;;;;;9.85;1.60;;;10.60;99.90;;;;;;5052347;28;20195;-90
2023/10/12 11:53:28;;;;;;;12.95;2.08;;;10.60;99.90;;;;;;5052146;28;20685;-92
2023/10/12 11:56:36;;;;;;;6.15;1.25;;;10.60;99.90;;;;;;5051179;28;20201;-92
2023/10/12 11:58:57;;;;;;;10.07;1.60;;;10.50;99.90;;;;;;5064720;28;20200;-91
2023/10/12 12:01:33;;;;;;;6.65;1.35;;;10.50;99.90;;;;;;5054454;28;20184;-90
2023/10/12 12:04:03;;;;;;;12.75;1.10;;;10.50;99.90;;;;;;5054646;28;20831;-91
2023/10/12 12:06:32;;;;;;;8.50;1.63;;;10.50;99.90;;;;;;5055000;28;20188;-92
2023/10/12 12:08:59;;;;;;;6.72;1.27;;;10.50;99.90;;;;;;5054475;28;20635;-90
2023/10/12 12:11:37;;;;;;;6.10;1.05;;;10.60;99.90;;;;;;5054912;28;20280;-91
2023/10/12 12:14:06;;;;;;;5.32;1.15;;;10.70;99.90;;;;;;5071393;28;20180;-91
2023/10/12 12:16:38;;;;;;;8.98;1.23;;;10.70;99.90;;;;;;5054385;28;20180;-91
2023/10/12 12:19:06;;;;;;;11.60;1.40;;;10.70;99.90;;;;;;5068038;28;20237;-91
2023/10/12 12:21:34;;;;;;;6.97;1.50;;;10.70;99.90;;;;;;5043205;28;20567;-91
2023/10/12 12:26:52;;;;;;;10.88;1.75;;;10.80;99.90;;;;;;5073124;28;20180;-93
2023/10/12 12:29:27;;;;;;;7.53;1.00;;;10.80;99.90;;;;;;5069617;28;20213;-93
2023/10/12 12:32:12;;;;;;;7.38;1.00;;;10.90;99.90;;;;;;5071013;28;20618;-91
2023/10/12 12:34:47;;;;;;;7.07;1.30;;;11.00;99.90;;;;;;5057751;28;20276;-92
2023/10/12 12:37:17;;;;;;;7.53;1.10;;;11.20;99.90;;;;;;5072449;28;20962;-90
2023/10/12 12:39:55;;;;;;;7.78;1.08;;;11.20;99.90;;;;;;5055494;28;20195;-91
2023/10/12 12:42:22;;;;;;;7.60;1.23;;;11.10;99.90;;;;;;5071416;28;20220;-92
2023/10/12 12:44:50;;;;;;;10.82;1.40;;;11.00;99.90;;;;;;5071917;28;20243;-92
2023/10/12 12:47:23;;;;;;;7.72;0.93;;;11.00;99.90;;;;;;5068157;28;20634;-92
2023/10/12 12:49:54;;;;;;;6.53;1.00;;;10.80;99.90;;;;;;5067675;28;20197;-93
2023/10/12 12:52:24;;;;;;;9.13;1.20;;;10.80;99.90;;;;;;5034921;28;20217;-91
2023/10/12 12:54:51;;;;;;;7.22;1.02;;;10.70;99.90;;;;;;5040521;28;20635;-92
2023/10/12 12:57:19;;;;;;;9.60;1.45;;;10.50;99.90;;;;;;5055413;28;20235;-91
2023/10/12 12:59:46;;;;;;;10.07;1.17;;;10.30;99.90;;;;;;5067970;28;20251;-93
2023/10/12 13:02:14;;;;;;;7.30;1.08;;;10.20;99.90;;;;;;5048730;28;20991;-89
2023/10/12 13:04:42;;;;;;;5.15;1.30;;;10.10;99.90;;;;;;5067394;28;20197;-91
2023/10/12 13:07:12;;;;;;;8.45;1.48;;;10.10;99.90;;;;;;5035366;28;20243;-92
2023/10/12 13:09:40;;;;;;;7.20;1.30;;;10.10;99.90;;;;;;5066623;28;20630;-92
2023/10/12 13:12:08;;;;;;;7.88;1.30;;;10.20;99.90;;;;;;5063032;28;20559;-92
2023/10/12 13:14:35;;;;;;;5.03;1.08;;;10.30;99.90;;;;;;5070919;28;20237;-92
2023/10/12 13:17:03;;;;;;;6.18;1.02;;;10.50;99.90;;;;;;5071942;28;20184;-93
2023/10/12 13:19:33;;;;;;;7.90;1.10;;;10.50;99.90;;;;;;5064028;28;20552;-92
2023/10/12 13:22:01;;;;;;;10.48;1.50;;;10.50;99.90;;;;;;5047517;28;20214;-91
2023/10/12 13:24:35;;;;;;;8.80;1.75;;;10.50;99.90;;;;;;5069865;28;20284;-90
2023/10/12 13:27:08;;;;;;;8.32;1.48;;;10.50;99.90;;;;;;5051823;28;20197;-92
2023/10/12 13:29:36;;;;;;;7.13;1.13;;;10.50;99.90;;;;;;5064664;28;20198;-91
2023/10/12 13:32:08;;;;;;;7.03;1.20;;;10.70;99.90;;;;;;5072844;28;20670;-93
2023/10/12 13:34:36;;;;;;;12.95;1.80;;;10.80;99.90;;;;;;5070835;28;20203;-92
2023/10/12 13:37:04;;;;;;;8.20;1.30;;;11.00;99.90;;;;;;5050455;28;20185;-92
2023/10/12 13:39:31;;;;;;;10.55;1.52;;;10.80;99.90;;;;;;5059359;28;20193;-92
2023/10/12 13:41:59;;;;;;;6.53;0.98;;;10.80;99.90;;;;;;5068280;28;20236;-92
2023/10/12 13:44:29;;;;;;;11.57;1.80;;;10.80;99.90;;;;;;5038665;28;21006;-91
2023/10/12 13:46:57;;;;;;;7.82;0.98;;;11.00;99.90;;;;;;5070319;28;22872;-91
2023/10/12 13:49:25;;;;;;;10.65;1.05;;;11.00;99.90;;;;;;5070357;28;20195;-92
2023/10/12 13:51:54;;;;;;;13.82;1.50;;;11.20;99.90;;;;;;5053237;28;20283;-92
2023/10/12 13:54:22;;;;;;;5.32;1.40;;;11.10;99.90;;;;;;5069553;28;20272;-92
2023/10/12 13:56:58;;;;;;;7.65;1.13;;;10.90;99.90;;;;;;5061397;28;20181;-93
2023/10/12 13:59:26;;;;;;;13.90;1.55;;;11.00;99.90;;;;;;5058712;28;20224;-91
2023/10/12 14:01:53;;;;;;;9.10;1.50;;;11.00;99.90;;;;;;5061053;28;20602;-92
2023/10/12 14:04:40;;;;;;;5.75;1.00;;;11.00;99.90;;;;;;5069607;28;20261;-91
2023/10/12 14:07:09;;;;;;;10.10;1.50;;;11.00;99.90;;;;;;5065875;28;20255;-91
2023/10/12 14:09:39;;;;;;;7.32;0.90;;;10.90;99.90;;;;;;5034999;28;20643;-90
2023/10/12 14:12:07;;;;;;;10.18;1.30;;;10.90;99.90;;;;;;5050150;28;20303;-91
2023/10/12 14:14:34;;;;;;;9.70;1.17;;;10.90;99.90;;;;;;5051227;28;20189;-91
2023/10/12 14:17:04;;;;;;;8.18;1.45;;;10.80;99.90;;;;;;5052517;28;20192;-90
2023/10/12 14:19:35;;;;;;;5.57;1.00;;;10.80;99.90;;;;;;5048541;28;20678;-93
2023/10/12 14:22:05;;;;;;;12.18;1.50;;;10.60;99.90;;;;;;5066040;28;20246;-94
2023/10/12 14:24:33;;;;;;;9.18;1.60;;;10.50;99.90;;;;;;5032284;28;20201;-92
2023/10/12 14:27:06;;;;;;;12.40;1.60;;;10.50;99.90;;;;;;5049996;28;20205;-89
2023/10/12 14:29:36;;;;;;;9.90;1.20;;;10.40;99.90;;;;;;5042228;28;20184;-91
2023/10/12 14:32:03;;;;;;;9.05;1.05;;;10.40;99.90;;;;;;5049703;28;20590;-90
2023/10/12 14:34:31;;;;;;;6.03;1.27;;;10.30;99.90;;;;;;5056545;28;20256;-91
2023/10/12 14:36:59;;;;;;;10.13;1.50;;;10.30;99.90;;;;;;5069875;28;20203;-91
2023/10/12 14:39:29;;;;;;;7.82;1.30;;;10.20;99.90;;;;;;5067190;28;20276;-91
2023/10/12 14:41:57;;;;;;;6.25;1.27;;;10.20;99.90;;;;;;5065870;28;20748;-89
2023/10/12 14:44:27;;;;;;;9.20;1.13;;;10.20;99.90;;;;;;5070091;28;20215;-91
2023/10/12 14:46:55;;;;;;;9.73;1.33;;;10.20;99.90;;;;;;5070471;28;20845;-91
2023/10/12 14:49:23;;;;;;;9.70;1.20;;;10.20;99.90;;;;;;5068982;28;20543;-91
2023/10/12 14:51:51;;;;;;;6.93;1.48;;;10.20;99.90;;;;;;5069294;28;20246;-91
2023/10/12 14:54:20;;;;;;;5.90;1.05;;;10.20;99.90;;;;;;5053332;28;20212;-92
2023/10/12 14:56:47;;;;;;;9.18;1.20;;;10.10;99.90;;;;;;5070123;28;20192;-90
2023/10/12 14:59:15;;;;;;;6.43;1.58;;;10.10;99.90;;;;;;5044030;28;20212;-92
2023/10/12 15:01:44;;;;;;;7.47;1.33;;;10.10;99.90;;;;;;5054188;28;20196;-91
2023/10/12 15:04:12;;;;;;;11.20;1.55;;;10.00;99.90;;;;;;5038813;28;20181;-91
2023/10/12 15:06:42;;;;;;;7.13;1.13;;;10.00;99.90;;;;;;5057205;28;20193;-91
2023/10/12 15:09:12;;;;;;;7.72;1.27;;;10.00;99.90;;;;;;5048993;28;20192;-91
2023/10/12 15:11:44;;;;;;;10.50;1.58;;;10.00;99.90;;;;;;5069184;28;20205;-91
2023/10/12 15:14:12;;;;;;;11.45;1.70;;;10.00;99.90;;;;;;5053546;28;20216;-91
2023/10/12 15:16:41;;;;;;;10.50;1.83;;;10.00;99.90;;;;;;5055344;28;20197;-93
2023/10/12 15:19:09;;;;;;;6.47;1.33;;;9.90;99.90;;;;;;5067259;28;20288;-91
2023/10/12 15:21:39;;;;;;;9.70;1.10;;;9.90;99.90;;;;;;5052674;28;20173;-91
2023/10/12 15:24:07;;;;;;;8.07;1.33;;;9.90;99.90;;;;;;5057616;28;21016;-93
2023/10/12 15:26:35;;;;;;;7.40;1.10;;;9.80;99.90;;;;;;5064804;28;20188;-92
2023/10/12 15:29:08;;;;;;;9.13;1.55;;;9.80;99.90;;;;;;5069990;28;20200;-91
2023/10/12 15:31:37;;;;;;;8.57;1.35;;;9.80;99.90;;;;;;5052609;28;20185;-92
2023/10/12 15:34:05;;;;;;;11.60;1.70;;;9.80;99.90;;;;;;5051992;28;20193;-92
2023/10/12 15:36:33;;;;;;;3.72;1.17;;;9.80;99.90;;;;;;5050562;28;20185;-92
2023/10/12 15:39:14;;;;;;;8.80;1.30;;;9.80;99.90;;;;;;5053419;28;20755;-93
2023/10/12 15:41:43;;;;;;;6.90;1.40;;;9.70;99.90;;;;;;5055553;28;20233;-91
2023/10/12 15:44:11;;;;;;;7.70;1.05;;;9.70;99.90;;;;;;5073244;28;20704;-92
2023/10/12 15:46:40;;;;;;;8.23;1.10;;;9.70;99.90;;;;;;5056446;28;20250;-92
2023/10/12 15:49:07;;;;;;;9.88;1.50;;;9.70;99.90;;;;;;5073523;28;20189;-91
2023/10/12 15:51:35;;;;;;;8.23;1.10;;;9.70;99.90;;;;;;5072921;28;20250;-91
2023/10/12 15:54:05;;;;;;;6.80;1.27;;;9.70;99.90;;;;;;5072888;28;20638;-93
2023/10/12 15:56:33;;;;;;;7.88;1.42;;;9.70;99.90;;;;;;5056284;28;20195;-93
2023/10/12 15:59:01;;;;;;;7.70;1.13;;;9.60;99.90;;;;;;5069822;28;20184;-94
2023/10/12 16:01:31;;;;;;;11.20;2.10;;;9.50;99.90;;;;;;5052769;28;20679;-92
2023/10/12 16:04:01;;;;;;;13.30;1.42;;;9.60;99.90;;;;;;5036130;28;20185;-92
2023/10/12 16:06:32;;;;;;;10.43;1.42;;;9.60;99.90;;;;;;5052695;28;20193;-93
2023/10/12 16:08:59;;;;;;;10.43;1.50;;;9.60;99.90;;;;;;5053057;28;20221;-91
2023/10/12 16:11:27;;;;;;;9.32;1.67;;;9.50;99.90;;;;;;5040690;28;20289;-91
2023/10/12 16:13:54;;;;;;;9.68;0.93;;;9.50;99.90;;;;;;5071635;28;20244;-93